createdAt,value
2023-08-18T00:01:26.014Z,79.39
2023-08-18T00:03:56.626Z,78.50
2023-08-18T00:06:27.358Z,78.52
2023-08-18T00:08:57.902Z,78.59
2023-08-18T00:11:28.469Z,78.34
2023-08-18T00:13:59.746Z,78.79
2023-08-18T00:16:30.340Z,79.15
2023-08-18T00:19:00.971Z,79.95
2023-08-18T00:21:31.502Z,80.25
2023-08-18T00:24:02.621Z,80.22
2023-08-18T00:26:32.842Z,80.14
2023-08-18T00:29:04.726Z,79.96
2023-08-18T00:31:36.343Z,80.06
2023-08-18T00:34:07.948Z,80.56
2023-08-18T00:36:38.742Z,81.27
2023-08-18T00:39:09.880Z,81.51
2023-08-18T00:41:40.473Z,81.95
2023-08-18T00:44:11.507Z,82.00
2023-08-18T00:46:42.043Z,81.32
2023-08-18T00:49:13.904Z,81.14
2023-08-18T00:51:44.434Z,80.80
2023-08-18T00:54:15.471Z,80.60
2023-08-18T00:56:49.677Z,80.99
2023-08-18T00:59:21.599Z,79.61
2023-08-18T01:01:52.965Z,78.70
2023-08-18T01:04:24.443Z,77.64
2023-08-18T01:06:55.520Z,77.34
2023-08-18T01:09:27.035Z,76.45
2023-08-18T01:12:26.433Z,76.42
2023-08-18T01:15:12.153Z,76.48
2023-08-18T01:17:58.322Z,77.50
2023-08-18T01:20:31.489Z,76.84
2023-08-18T01:23:03.309Z,76.17
2023-08-18T01:25:34.496Z,76.24
2023-08-18T01:28:08.555Z,76.04
2023-08-18T01:30:50.925Z,75.17
2023-08-18T01:33:26.070Z,75.17
2023-08-18T01:36:04.056Z,75.28
2023-08-18T01:38:35.601Z,75.26
2023-08-18T01:41:09.297Z,75.25
2023-08-18T01:43:39.694Z,75.46
2023-08-18T01:46:11.110Z,75.15
2023-08-18T01:48:42.003Z,74.57
2023-08-18T01:51:13.285Z,73.97
2023-08-18T01:53:45.651Z,74.04
2023-08-18T01:56:17.267Z,73.97
2023-08-18T01:58:51.596Z,73.70
2023-08-18T02:01:22.167Z,73.82
2023-08-18T02:03:52.637Z,73.73
2023-08-18T02:06:23.834Z,73.53
2023-08-18T02:08:54.064Z,72.53
2023-08-18T02:11:26.937Z,72.85
2023-08-18T02:13:57.600Z,72.51
2023-08-18T02:16:29.009Z,72.71
2023-08-18T02:19:00.153Z,71.49
2023-08-18T02:21:33.587Z,70.89
2023-08-18T02:24:04.713Z,71.13
2023-08-18T02:26:35.217Z,71.68
2023-08-18T02:29:06.695Z,71.15
2023-08-18T02:31:37.667Z,71.05
2023-08-18T02:34:09.988Z,69.88
2023-08-18T02:36:42.097Z,69.62
2023-08-18T02:39:14.335Z,69.51
2023-08-18T02:41:44.734Z,69.16
2023-08-18T02:44:15.203Z,69.17
2023-08-18T02:46:46.142Z,68.85
2023-08-18T02:49:17.150Z,68.35
2023-08-18T02:51:48.388Z,67.00
2023-08-18T02:54:19.576Z,67.28
2023-08-18T02:56:50.538Z,67.61
2023-08-18T02:59:21.613Z,67.38
2023-08-18T03:01:52.570Z,68.13
2023-08-18T03:04:23.154Z,69.27
2023-08-18T03:06:54.658Z,69.60
2023-08-18T03:09:25.736Z,69.70
2023-08-18T03:11:56.370Z,69.23
2023-08-18T03:14:26.973Z,68.83
2023-08-18T03:16:57.964Z,69.52
2023-08-18T03:19:29.026Z,69.36
2023-08-18T03:22:00.545Z,69.66
2023-08-18T03:24:31.048Z,69.22
2023-08-18T03:27:03.133Z,68.73
2023-08-18T03:29:33.808Z,68.00
2023-08-18T03:32:04.178Z,67.53
2023-08-18T03:34:35.080Z,67.97
2023-08-18T03:37:06.503Z,68.21
2023-08-18T03:39:37.929Z,67.78
2023-08-18T03:42:09.554Z,67.13
2023-08-18T03:44:41.151Z,67.46
2023-08-18T03:47:12.158Z,67.76
2023-08-18T03:49:43.025Z,67.12
2023-08-18T03:52:13.796Z,66.87
2023-08-18T03:54:45.094Z,65.98
2023-08-18T03:57:15.520Z,65.11
2023-08-18T03:59:45.493Z,64.38
2023-08-18T04:02:15.800Z,64.43
2023-08-18T04:04:46.392Z,65.57
2023-08-18T04:07:17.089Z,65.49
2023-08-18T04:09:47.648Z,66.60
2023-08-18T04:12:18.429Z,66.70
2023-08-18T04:14:49.153Z,67.75
2023-08-18T04:17:21.261Z,68.51
2023-08-18T04:19:54.517Z,68.67
2023-08-18T04:22:25.604Z,67.88
2023-08-18T04:24:56.198Z,67.03
2023-08-18T04:27:26.424Z,67.75
2023-08-18T04:29:57.415Z,67.89
2023-08-18T04:32:28.268Z,67.91
2023-08-18T04:35:03.492Z,67.29
2023-08-18T04:37:35.941Z,67.42
2023-08-18T04:40:07.405Z,67.27
2023-08-18T04:42:38.249Z,67.18
2023-08-18T04:45:10.228Z,66.55
2023-08-18T04:47:42.173Z,65.96
2023-08-18T04:50:12.394Z,65.68
2023-08-18T04:52:43.488Z,64.86
2023-08-18T04:55:14.724Z,65.17
2023-08-18T04:57:45.544Z,65.31
2023-08-18T05:00:17.025Z,65.59
2023-08-18T05:02:48.084Z,64.50
2023-08-18T05:05:18.691Z,64.91
2023-08-18T05:07:50.493Z,64.91
2023-08-18T05:10:21.493Z,64.63
2023-08-18T05:12:51.888Z,65.44
2023-08-18T05:15:23.981Z,65.58
2023-08-18T05:17:55.741Z,65.16
2023-08-18T05:20:26.237Z,65.22
2023-08-18T05:22:56.542Z,64.38
2023-08-18T05:25:27.993Z,65.11
2023-08-18T05:28:01.166Z,63.95
2023-08-18T05:30:31.950Z,63.46
2023-08-18T05:33:02.450Z,62.18
2023-08-18T05:35:35.151Z,62.62
2023-08-18T05:38:12.795Z,62.76
2023-08-18T05:40:53.008Z,62.58
2023-08-18T05:43:26.010Z,61.73
2023-08-18T05:45:56.522Z,61.05
2023-08-18T05:48:27.205Z,61.41
2023-08-18T05:50:59.813Z,60.61
2023-08-18T05:53:32.198Z,60.94
2023-08-18T05:56:02.572Z,61.58
2023-08-18T05:58:33.496Z,61.65
2023-08-18T06:01:05.740Z,61.14
2023-08-18T06:03:36.613Z,60.52
2023-08-18T06:06:07.362Z,60.12
2023-08-18T06:08:38.115Z,61.03
2023-08-18T06:11:08.750Z,60.41
2023-08-18T06:13:39.087Z,59.98
2023-08-18T06:16:09.922Z,59.59
2023-08-18T06:18:40.014Z,59.15
2023-08-18T06:21:10.759Z,58.65
2023-08-18T06:23:41.190Z,58.24
2023-08-18T06:26:12.015Z,58.80
2023-08-18T06:28:42.249Z,58.23
2023-08-18T06:31:15.470Z,57.79
2023-08-18T06:33:45.759Z,57.65
2023-08-18T06:36:15.714Z,56.96
2023-08-18T06:38:45.643Z,56.31
2023-08-18T06:41:15.938Z,55.85
2023-08-18T06:43:46.457Z,55.57
2023-08-18T06:46:18.416Z,55.23
2023-08-18T06:48:49.962Z,54.98
2023-08-18T06:51:20.244Z,55.85
2023-08-18T06:53:51.029Z,55.37
2023-08-18T06:56:21.425Z,56.03
2023-08-18T06:58:53.109Z,55.97
2023-08-18T07:01:23.498Z,55.36
2023-08-18T07:03:54.914Z,55.02
2023-08-18T07:06:25.526Z,54.48
2023-08-18T07:08:59.257Z,53.98
2023-08-18T07:11:29.903Z,54.24
2023-08-18T07:14:00.641Z,53.79
2023-08-18T07:16:30.850Z,53.29
2023-08-18T07:19:03.396Z,52.24
2023-08-18T07:21:34.116Z,52.14
2023-08-18T07:24:05.294Z,51.99
2023-08-18T07:26:35.658Z,52.34
2023-08-18T07:29:09.009Z,51.93
2023-08-18T07:31:40.079Z,52.63
2023-08-18T07:34:11.158Z,52.83
2023-08-18T07:36:41.544Z,53.38
2023-08-18T07:39:12.515Z,53.75
2023-08-18T07:41:43.388Z,54.07
2023-08-18T07:44:13.896Z,53.85
2023-08-18T07:46:45.026Z,53.21
2023-08-18T07:49:15.373Z,52.97
2023-08-18T07:51:45.341Z,53.33
2023-08-18T07:54:15.668Z,53.55
2023-08-18T07:56:45.973Z,53.65
2023-08-18T07:59:17.027Z,54.48
2023-08-18T08:01:49.820Z,55.11
2023-08-18T08:04:20.482Z,55.13
2023-08-18T08:06:52.011Z,54.93
2023-08-18T08:09:23.339Z,55.12
2023-08-18T08:11:54.850Z,55.36
2023-08-18T08:14:25.386Z,55.61
2023-08-18T08:16:56.013Z,55.43
2023-08-18T08:19:27.565Z,55.84
2023-08-18T08:21:59.110Z,56.45
2023-08-18T08:24:31.454Z,56.50
2023-08-18T08:27:01.915Z,56.48
2023-08-18T08:29:35.436Z,57.38
2023-08-18T08:32:10.282Z,57.64
2023-08-18T08:34:44.484Z,58.38
2023-08-18T08:37:15.158Z,58.93
2023-08-18T08:39:47.665Z,59.54
2023-08-18T08:42:20.105Z,59.68
2023-08-18T08:44:50.583Z,59.87
2023-08-18T08:47:23.215Z,60.96
2023-08-18T08:49:58.502Z,62.12
2023-08-18T08:52:38.112Z,61.94
2023-08-18T08:55:10.027Z,62.27
2023-08-18T08:57:40.598Z,62.60
2023-08-18T09:00:12.955Z,62.67
2023-08-18T09:02:47.732Z,61.77
2023-08-18T09:05:18.438Z,61.71
2023-08-18T09:07:52.902Z,61.98
2023-08-18T09:10:23.536Z,62.65
2023-08-18T09:12:54.535Z,62.42
2023-08-18T09:15:26.899Z,62.58
2023-08-18T09:17:59.265Z,61.77
2023-08-18T09:20:30.273Z,60.75
2023-08-18T09:23:01.273Z,60.02
2023-08-18T09:25:35.564Z,59.21
2023-08-18T09:28:10.292Z,59.10
2023-08-18T09:30:47.636Z,58.97
2023-08-18T09:33:20.576Z,59.80
2023-08-18T09:36:00.946Z,60.21
2023-08-18T09:38:36.442Z,60.98
2023-08-18T09:41:07.622Z,61.79
2023-08-18T09:43:39.145Z,61.76
2023-08-18T09:46:10.546Z,62.61
2023-08-18T09:48:41.056Z,62.53
2023-08-18T09:51:12.574Z,63.30
2023-08-18T09:53:51.536Z,64.03
2023-08-18T09:56:31.410Z,64.39
2023-08-18T09:59:17.240Z,64.48
2023-08-18T10:01:51.601Z,65.25
2023-08-18T10:04:26.721Z,65.08
2023-08-18T10:06:58.220Z,65.26
2023-08-18T10:09:35.316Z,65.20
2023-08-18T10:12:05.961Z,64.14
2023-08-18T10:14:37.027Z,64.32
2023-08-18T10:17:09.881Z,64.42
2023-08-18T10:19:47.826Z,64.86
2023-08-18T10:22:19.673Z,64.22
2023-08-18T10:24:51.867Z,64.50
2023-08-18T10:27:31.890Z,64.53
2023-08-18T10:30:05.000Z,64.22
2023-08-18T10:32:35.772Z,64.11
2023-08-18T10:35:27.457Z,64.90
2023-08-18T10:37:59.262Z,65.78
2023-08-18T10:40:32.378Z,66.21
2023-08-18T10:43:14.956Z,67.10
2023-08-18T10:45:45.640Z,67.59
2023-08-18T10:48:17.671Z,67.88
2023-08-18T10:50:49.682Z,68.43
2023-08-18T10:53:20.227Z,68.38
2023-08-18T10:55:50.769Z,68.80
2023-08-18T10:58:21.984Z,68.07
2023-08-18T11:00:52.472Z,68.44
2023-08-18T11:03:23.326Z,68.36
2023-08-18T11:05:54.675Z,68.09
2023-08-18T11:08:25.407Z,67.72
2023-08-18T11:10:56.221Z,67.09
2023-08-18T11:13:33.174Z,66.77
2023-08-18T11:16:04.288Z,65.81
2023-08-18T11:18:35.398Z,65.29
2023-08-18T11:21:05.580Z,64.73
2023-08-18T11:23:36.538Z,64.40
2023-08-18T11:26:06.937Z,64.38
2023-08-18T11:28:54.475Z,64.73
2023-08-18T11:31:24.621Z,64.92
2023-08-18T11:33:55.397Z,65.35
2023-08-18T11:36:34.435Z,65.59
2023-08-18T11:39:12.328Z,65.67
2023-08-18T11:41:47.342Z,66.24
2023-08-18T11:44:18.069Z,66.55
2023-08-18T11:46:48.501Z,66.24
2023-08-18T11:49:20.320Z,66.22
2023-08-18T11:52:06.135Z,66.55
2023-08-18T11:54:40.716Z,66.37
2023-08-18T11:57:16.562Z,66.59
2023-08-18T11:59:48.695Z,66.23
2023-08-18T12:02:25.625Z,66.37
2023-08-18T12:04:58.473Z,65.83
2023-08-18T12:07:28.478Z,65.93
2023-08-18T12:09:58.606Z,66.12
2023-08-18T12:12:29.799Z,66.16
2023-08-18T12:14:59.917Z,66.84
2023-08-18T12:17:30.684Z,67.25
2023-08-18T12:20:01.134Z,67.37
2023-08-18T12:22:31.789Z,67.68
2023-08-18T12:25:02.398Z,68.20
2023-08-18T12:27:32.698Z,68.39
2023-08-18T12:30:04.927Z,68.40
2023-08-18T12:32:35.867Z,68.42
2023-08-18T12:35:06.730Z,68.54
2023-08-18T12:37:40.411Z,69.08
2023-08-18T12:40:14.528Z,69.18
2023-08-18T12:42:44.571Z,68.50
2023-08-18T12:45:17.458Z,68.71
2023-08-18T12:47:47.643Z,68.70
2023-08-18T12:50:18.526Z,68.53
2023-08-18T12:52:48.979Z,68.69
2023-08-18T12:55:19.649Z,68.10
2023-08-18T12:57:50.252Z,68.46
2023-08-18T13:00:20.813Z,68.75
2023-08-18T13:02:52.688Z,68.58
2023-08-18T13:05:22.758Z,67.91
2023-08-18T13:07:54.595Z,68.63
2023-08-18T13:10:25.277Z,69.50
2023-08-18T13:12:56.258Z,70.62
2023-08-18T13:15:29.420Z,70.63
2023-08-18T13:18:03.202Z,71.52
2023-08-18T13:20:33.656Z,71.95
2023-08-18T13:23:05.721Z,72.82
2023-08-18T13:25:37.212Z,72.95
2023-08-18T13:28:08.463Z,73.12
2023-08-18T13:30:41.149Z,72.08
2023-08-18T13:33:14.838Z,71.65
2023-08-18T13:35:45.130Z,71.56
2023-08-18T13:38:15.778Z,71.78
2023-08-18T13:40:48.095Z,71.44
2023-08-18T13:43:21.423Z,71.52
2023-08-18T13:45:53.020Z,71.51
2023-08-18T13:48:25.105Z,70.93
2023-08-18T13:50:57.632Z,71.04
2023-08-18T13:53:31.532Z,71.00
2023-08-18T13:56:02.033Z,70.97
2023-08-18T13:58:32.442Z,70.58
2023-08-18T14:01:03.470Z,71.37
2023-08-18T14:03:36.657Z,70.67
2023-08-18T14:06:06.921Z,70.87
2023-08-18T14:08:37.424Z,70.97
2023-08-18T14:11:10.416Z,71.23
2023-08-18T14:13:48.927Z,70.96
2023-08-18T14:16:20.034Z,71.25
2023-08-18T14:18:50.444Z,71.70
2023-08-18T14:21:21.218Z,71.36
2023-08-18T14:23:52.033Z,71.45
2023-08-18T14:26:22.607Z,71.18
2023-08-18T14:28:52.939Z,70.91
2023-08-18T14:31:24.579Z,70.04
2023-08-18T14:33:55.370Z,69.26
2023-08-18T14:36:27.799Z,69.62
2023-08-18T14:38:58.054Z,69.67
2023-08-18T14:41:28.969Z,69.88
2023-08-18T14:44:00.075Z,69.91
2023-08-18T14:46:30.156Z,70.33
2023-08-18T14:49:00.194Z,70.01
2023-08-18T14:51:30.749Z,69.01
2023-08-18T14:54:00.968Z,68.93
2023-08-18T14:56:32.907Z,68.75
2023-08-18T14:59:03.195Z,69.23
2023-08-18T15:01:36.518Z,69.76
2023-08-18T15:04:07.127Z,70.03
2023-08-18T15:06:40.532Z,70.36
2023-08-18T15:09:11.484Z,71.05
2023-08-18T15:11:42.223Z,72.13
2023-08-18T15:14:12.820Z,72.12
2023-08-18T15:16:43.431Z,72.58
2023-08-18T15:19:15.527Z,72.31
2023-08-18T15:21:47.566Z,72.13
2023-08-18T15:24:17.750Z,71.94
2023-08-18T15:26:56.951Z,71.69
2023-08-18T15:29:28.396Z,71.75
2023-08-18T15:31:59.630Z,72.16
2023-08-18T15:34:31.740Z,72.08
2023-08-18T15:37:03.126Z,72.39
2023-08-18T15:39:33.152Z,72.54
2023-08-18T15:42:03.112Z,72.80
2023-08-18T15:44:33.156Z,72.64
2023-08-18T15:47:05.606Z,72.64
2023-08-18T15:49:36.593Z,73.00
2023-08-18T15:52:07.141Z,72.89
2023-08-18T15:54:37.296Z,72.99
2023-08-18T15:57:07.313Z,73.53
2023-08-18T15:59:37.804Z,72.98
2023-08-18T16:02:07.916Z,73.32
2023-08-18T16:04:40.264Z,73.19
2023-08-18T16:07:10.503Z,73.60
2023-08-18T16:09:40.390Z,73.34
2023-08-18T16:12:10.800Z,73.42
2023-08-18T16:15:20.710Z,73.26
2023-08-18T16:17:31.438Z,73.45
2023-08-18T16:20:01.716Z,74.15
2023-08-18T16:22:31.803Z,73.86
2023-08-18T16:25:01.662Z,74.29
2023-08-18T16:27:32.404Z,74.31
2023-08-18T16:30:03.762Z,74.30
2023-08-18T16:32:33.723Z,74.39
2023-08-18T16:35:04.091Z,74.75
2023-08-18T16:37:34.856Z,74.83
2023-08-18T16:40:25.268Z,75.13
2023-08-18T16:42:58.640Z,74.70
2023-08-18T16:45:32.253Z,74.55
2023-08-18T16:48:02.663Z,74.59
2023-08-18T16:50:32.722Z,74.81
2023-08-18T16:53:03.072Z,75.63
2023-08-18T16:55:33.084Z,75.90
2023-08-18T16:58:03.358Z,76.04
2023-08-18T17:00:33.351Z,76.18
2023-08-18T17:03:03.781Z,76.35
2023-08-18T17:05:40.515Z,76.42
2023-08-18T17:08:14.083Z,75.52
2023-08-18T17:10:44.115Z,75.95
2023-08-18T17:13:15.501Z,75.70
2023-08-18T17:15:45.799Z,75.91
2023-08-18T17:18:15.854Z,76.20
2023-08-18T17:20:52.088Z,75.94
2023-08-18T17:23:25.267Z,76.00
2023-08-18T17:25:56.581Z,75.60
2023-08-18T17:28:26.927Z,75.65
2023-08-18T17:30:56.976Z,75.86
2023-08-18T17:33:27.144Z,75.80
2023-08-18T17:35:57.520Z,75.54
2023-08-18T17:38:28.216Z,75.78
2023-08-18T17:40:58.501Z,75.71
2023-08-18T17:43:29.015Z,75.85
2023-08-18T17:46:03.846Z,75.77
2023-08-18T17:48:35.983Z,75.89
2023-08-18T17:51:06.584Z,75.92
2023-08-18T17:53:36.615Z,75.16
2023-08-18T17:56:06.704Z,75.21
2023-08-18T17:58:37.428Z,75.09
2023-08-18T18:01:07.926Z,74.86
2023-08-18T18:03:37.880Z,75.14
2023-08-18T18:06:12.566Z,75.20
2023-08-18T18:08:42.586Z,75.16
2023-08-18T18:11:12.851Z,75.51
2023-08-18T18:13:46.923Z,75.53
2023-08-18T18:16:16.910Z,75.70
2023-08-18T18:18:46.874Z,75.91
2023-08-18T18:21:17.178Z,75.75
2023-08-18T18:23:47.130Z,75.92
2023-08-18T18:26:19.071Z,76.37
2023-08-18T18:28:48.990Z,76.38
2023-08-18T18:31:20.374Z,76.40
2023-08-18T18:33:50.969Z,76.15
2023-08-18T18:36:21.855Z,76.20
2023-08-18T18:38:51.741Z,76.43
2023-08-18T18:41:22.357Z,76.63
2023-08-18T18:43:57.080Z,76.83
2023-08-18T18:46:28.272Z,76.71
2023-08-18T18:48:59.712Z,77.01
2023-08-18T18:51:31.288Z,76.88
2023-08-18T18:54:02.041Z,77.34
2023-08-18T18:56:52.060Z,77.05
2023-08-18T18:59:23.138Z,77.27
2023-08-18T19:01:53.042Z,77.69
2023-08-18T19:04:23.182Z,77.45
2023-08-18T19:06:54.030Z,77.38
2023-08-18T19:09:23.950Z,77.76
2023-08-18T19:11:58.086Z,77.82
2023-08-18T19:14:29.168Z,78.10
2023-08-18T19:16:59.773Z,78.30
2023-08-18T19:19:30.178Z,78.49
2023-08-18T19:22:03.663Z,78.63
2023-08-18T19:27:12.520Z,78.61
2023-08-18T19:29:43.473Z,78.74
2023-08-18T19:32:13.532Z,78.66
2023-08-18T19:34:44.157Z,78.98
2023-08-18T19:37:14.820Z,78.86
2023-08-18T19:39:45.191Z,78.87
2023-08-18T19:42:16.280Z,79.08
2023-08-18T19:44:46.818Z,79.02
2023-08-18T19:47:16.723Z,79.40
2023-08-18T19:49:46.437Z,79.06
2023-08-18T19:52:17.348Z,78.66
2023-08-18T19:54:52.755Z,78.30
2023-08-18T19:57:28.864Z,78.13
2023-08-18T20:00:07.921Z,77.66
2023-08-18T20:02:47.760Z,77.42
2023-08-18T20:05:18.725Z,77.52
2023-08-18T20:07:49.017Z,77.86
2023-08-18T20:10:24.272Z,77.73
2023-08-18T20:12:54.571Z,77.70
2023-08-18T20:15:25.720Z,77.22
2023-08-18T20:17:55.760Z,77.43
2023-08-18T20:20:25.520Z,77.37
2023-08-18T20:22:58.425Z,77.34
2023-08-18T20:25:28.897Z,77.48
2023-08-18T20:27:59.314Z,77.14
2023-08-18T20:30:29.587Z,77.73
2023-08-18T20:33:00.456Z,77.76
2023-08-18T20:35:30.612Z,77.59
2023-08-18T20:38:00.256Z,77.67
2023-08-18T20:40:30.151Z,77.17
2023-08-18T20:43:00.074Z,77.64
2023-08-18T20:45:29.974Z,77.28
2023-08-18T20:48:00.373Z,77.42
2023-08-18T20:50:30.376Z,77.54
2023-08-18T20:53:00.566Z,77.63
2023-08-18T20:55:31.129Z,77.99
2023-08-18T20:58:03.312Z,77.58
2023-08-18T21:00:34.254Z,78.07
2023-08-18T21:03:04.586Z,78.20
2023-08-18T21:05:37.396Z,78.33
2023-08-18T21:08:07.566Z,77.52
2023-08-18T21:10:37.830Z,77.58
2023-08-18T21:13:08.163Z,78.09
2023-08-18T21:15:38.439Z,78.38
2023-08-18T21:18:08.575Z,78.55
2023-08-18T21:20:38.499Z,78.53
2023-08-18T21:23:08.136Z,78.49
2023-08-18T21:25:38.037Z,78.79
2023-08-18T21:28:08.115Z,78.82
2023-08-18T21:30:38.006Z,79.18
2023-08-18T21:33:10.994Z,78.92
2023-08-18T21:35:40.936Z,78.90
2023-08-18T21:38:11.034Z,79.03
2023-08-18T21:40:41.004Z,79.06
2023-08-18T21:43:11.146Z,78.57
2023-08-18T21:45:41.076Z,78.65
2023-08-18T21:48:11.942Z,78.11
2023-08-18T21:50:42.117Z,77.87
2023-08-18T21:53:12.133Z,78.09
2023-08-18T21:55:42.507Z,78.98
2023-08-18T21:58:12.834Z,79.02
2023-08-18T22:00:43.203Z,79.40
2023-08-18T22:03:13.608Z,79.04
2023-08-18T22:05:43.887Z,79.33
2023-08-18T22:08:13.872Z,79.50
2023-08-18T22:10:43.889Z,79.11
2023-08-18T22:13:13.892Z,79.23
2023-08-18T22:15:46.708Z,79.05
2023-08-18T22:18:17.371Z,79.56
2023-08-18T22:20:47.229Z,79.38
2023-08-18T22:23:17.489Z,79.33
2023-08-18T22:25:50.275Z,78.67
2023-08-18T22:28:20.565Z,79.04
2023-08-18T22:30:50.656Z,78.78
2023-08-18T22:33:24.844Z,78.84
2023-08-18T22:35:58.764Z,78.42
2023-08-18T22:38:28.661Z,78.21
2023-08-18T22:41:02.223Z,78.19
2023-08-18T22:43:35.431Z,78.14
2023-08-18T22:46:05.987Z,78.72
2023-08-18T22:48:36.278Z,77.88
2023-08-18T22:51:17.649Z,78.07
2023-08-18T22:53:55.577Z,77.51
2023-08-18T22:56:25.481Z,77.32
2023-08-18T22:58:59.259Z,77.09
2023-08-18T23:01:29.653Z,76.95
2023-08-18T23:03:59.616Z,76.95
2023-08-18T23:06:29.374Z,76.93
2023-08-18T23:08:59.374Z,76.36
2023-08-18T23:11:29.276Z,76.07
2023-08-18T23:13:59.512Z,75.57
2023-08-18T23:16:29.636Z,75.53
2023-08-18T23:19:00.792Z,75.37
2023-08-18T23:21:30.920Z,75.11
2023-08-18T23:24:01.602Z,74.78
2023-08-18T23:26:31.951Z,74.58
2023-08-18T23:29:02.284Z,74.70
2023-08-18T23:31:33.911Z,74.47
2023-08-18T23:34:04.020Z,74.18
2023-08-18T23:36:33.986Z,73.93
2023-08-18T23:39:06.882Z,73.78
2023-08-18T23:41:38.202Z,73.32
2023-08-18T23:44:08.569Z,72.96
2023-08-18T23:46:38.567Z,72.51
2023-08-18T23:49:09.024Z,71.91
2023-08-18T23:51:39.010Z,71.89
2023-08-18T23:54:09.072Z,72.20
2023-08-18T23:56:39.088Z,71.89
2023-08-18T23:59:18.783Z,71.72
